Time;durP1;ratioP1;P1;durP2;ratioP2;P2;SDS_P1;SDS_P2;PMS_P1;PMS_P2;Temp;Humidity;BMP_temperature;BMP_pressure;BME280_temperature;BME280_humidity;BME280_pressure;Samples;Min_cycle;Max_cycle;Signal;HPM_P1;HPM_P2
2023/04/05 00:01:27;;;;;;;34.73;12.73;;;;;;;-144.73;79.28;54342.03;5029715;28;20029;-71
2023/04/05 00:03:54;;;;;;;31.70;11.50;;;;;;;-144.73;79.45;54337.91;5046064;28;20037;-72
2023/04/05 00:06:25;;;;;;;25.37;11.30;;;;;;;-144.73;79.95;54378.97;5030016;28;20112;-71
2023/04/05 00:08:56;;;;;;;23.67;11.40;;;;;;;-144.73;79.76;54313.28;5027540;28;20060;-71
2023/04/05 00:11:22;;;;;;;29.07;13.03;;;;;;;-144.73;79.73;54337.91;5048350;28;20017;-72
2023/04/05 00:13:48;;;;;;;34.60;13.60;;;;;;;-144.73;79.85;54317.38;5026956;28;20112;-71
2023/04/05 00:16:15;;;;;;;38.07;16.30;;;;;;;-144.73;80.41;54346.13;5040532;28;20113;-71
2023/04/05 00:18:45;;;;;;;36.87;14.63;;;;;;;-144.73;80.26;54350.22;5038317;28;20025;-71
2023/04/05 00:21:13;;;;;;;41.73;14.83;;;;;;;-144.73;80.57;54296.88;5036546;28;20025;-71
2023/04/05 00:23:40;;;;;;;41.80;16.67;;;;;;;-144.73;80.41;54305.06;5026611;28;20026;-71
2023/04/05 00:26:06;;;;;;;34.30;14.77;;;;;;;-144.73;80.27;54317.38;5027345;28;20032;-71
2023/04/05 00:28:31;;;;;;;46.20;17.83;;;;;;;-144.73;81.26;54305.06;5028411;28;20104;-71
2023/04/05 00:30:57;;;;;;;29.70;12.57;;;;;;;-144.73;81.42;54329.72;5027741;28;20025;-71
2023/04/05 00:33:22;;;;;;;28.70;11.80;;;;;;;-144.73;81.16;54309.19;5027362;28;20044;-71
2023/04/05 00:35:47;;;;;;;26.03;10.93;;;;;;;-144.73;80.88;54358.44;5034016;28;20013;-71
2023/04/05 00:38:13;;;;;;;21.80;9.60;;;;;;;-144.73;81.11;54325.59;5028436;28;20370;-71
2023/04/05 00:40:38;;;;;;;28.23;10.57;;;;;;;-144.73;80.63;54325.59;5018465;28;20443;-71
2023/04/05 00:43:03;;;;;;;23.20;9.90;;;;;;;-144.73;81.24;54321.50;5025234;28;20082;-70
2023/04/05 00:45:29;;;;;;;30.83;9.93;;;;;;;-144.73;81.71;54300.97;5040041;28;20025;-70
2023/04/05 00:47:55;;;;;;;26.00;10.37;;;;;;;-144.73;81.14;54346.13;5029652;28;20047;-70
2023/04/05 00:50:21;;;;;;;26.87;10.37;;;;;;;-144.73;81.07;54370.75;5029710;28;20025;-71
2023/04/05 00:52:47;;;;;;;32.73;11.37;;;;;;;-144.73;81.71;54325.59;5046047;28;20025;-71
2023/04/05 00:55:13;;;;;;;26.13;11.87;;;;;;;-144.73;81.67;54333.81;5024552;28;20021;-70
2023/04/05 00:57:38;;;;;;;24.70;11.20;;;;;;;-144.73;81.21;54305.06;5028878;28;20036;-70
2023/04/05 01:00:10;;;;;;;25.30;10.87;;;;;;;-144.73;81.47;54313.28;5023941;28;20048;-70
2023/04/05 01:02:44;;;;;;;;;;;;;;;-144.73;81.24;54284.56;5031774;28;20037;-71
2023/04/05 01:05:37;;;;;;;23.33;10.67;;;;;;;-144.73;81.76;54358.44;5025613;28;19908;-71
2023/04/05 01:08:27;;;;;;;24.73;10.60;;;;;;;-144.73;82.71;54319.44;5023530;28;20081;-70
2023/04/05 01:10:59;;;;;;;19.57;9.40;;;;;;;-144.73;82.82;54329.72;5046611;28;20048;-70
2023/04/05 01:13:25;;;;;;;26.30;10.70;;;;;;;-144.73;82.73;54321.50;5036105;28;20025;-70
2023/04/05 01:15:50;;;;;;;32.50;11.03;;;;;;;-144.73;82.53;54335.88;5030441;28;20362;-70
2023/04/05 01:18:17;;;;;;;28.50;11.77;;;;;;;-144.73;82.77;54309.19;5042857;28;20029;-70
2023/04/05 01:20:53;;;;;;;24.73;10.93;;;;;;;-144.73;82.70;54313.28;5025689;28;20036;-70
2023/04/05 01:23:43;;;;;;;22.63;10.77;;;;;;;-144.73;83.07;54381.00;5021870;28;20037;-70
2023/04/05 01:26:41;;;;;;;27.10;11.20;;;;;;;-144.73;82.83;54319.44;5026164;28;20021;-70
2023/04/05 01:29:18;;;;;;;26.57;11.03;;;;;;;-144.73;82.98;54342.03;5033340;28;20029;-70
2023/04/05 01:31:55;;;;;;;30.27;11.73;;;;;;;-144.73;82.85;54337.91;5043691;28;20025;-70
2023/04/05 01:34:45;;;;;;;29.83;10.50;;;;;;;-144.73;83.51;54313.28;5039102;28;20029;-70
2023/04/05 01:37:14;;;;;;;29.20;11.07;;;;;;;-144.73;83.47;54329.72;5018546;28;20156;-70
2023/04/05 01:39:40;;;;;;;28.00;11.27;;;;;;;-144.73;83.45;54329.72;5023478;28;20017;-70
2023/04/05 01:42:06;;;;;;;27.33;10.07;;;;;;;-144.73;84.01;54329.72;5027337;28;20059;-70
2023/04/05 01:44:31;;;;;;;31.43;10.93;;;;;;;-144.73;84.77;54333.81;5027601;28;20029;-70
2023/04/05 01:46:57;;;;;;;26.10;10.43;;;;;;;-144.73;84.57;54292.75;5021778;28;20509;-70
2023/04/05 01:49:23;;;;;;;29.23;11.27;;;;;;;-144.73;85.37;54296.88;5038313;28;20033;-70
2023/04/05 01:51:49;;;;;;;31.37;11.03;;;;;;;-144.73;86.15;54321.50;5019718;28;20029;-70
2023/04/05 01:54:14;;;;;;;30.83;11.13;;;;;;;-144.73;86.39;54300.97;5036479;28;20035;-70
2023/04/05 01:56:40;;;;;;;28.73;11.63;;;;;;;-144.73;87.08;54317.38;5028583;28;20033;-71
2023/04/05 01:59:05;;;;;;;26.87;10.97;;;;;;;-144.73;87.11;54309.19;5024618;28;20041;-71
2023/04/05 02:01:31;;;;;;;25.47;11.47;;;;;;;-144.73;87.21;54292.75;5026916;28;20033;-71
2023/04/05 02:03:56;;;;;;;27.43;11.53;;;;;;;-144.73;87.80;54337.91;5025461;28;20416;-71
2023/04/05 02:06:22;;;;;;;30.37;10.00;;;;;;;-144.73;88.28;54346.13;5022627;28;20056;-71
2023/04/05 02:08:47;;;;;;;25.53;10.77;;;;;;;-144.73;87.83;54317.38;5026463;28;20033;-71
2023/04/05 02:11:12;;;;;;;25.80;11.13;;;;;;;-144.73;87.95;54323.53;5027672;28;20040;-71
2023/04/05 02:13:38;;;;;;;22.93;9.83;;;;;;;-144.73;88.02;54288.66;5035568;28;20037;-71
2023/04/05 02:16:03;;;;;;;26.10;11.27;;;;;;;-144.73;87.88;54313.28;5028728;28;20087;-71
2023/04/05 02:18:30;;;;;;;29.27;10.93;;;;;;;-144.73;87.32;54309.19;5024111;28;20057;-71
2023/04/05 02:21:06;;;;;;;22.90;9.80;;;;;;;-144.73;87.26;54325.59;5028849;28;20029;-71
2023/04/05 02:23:33;;;;;;;21.00;10.43;;;;;;;-144.73;87.14;54329.72;5024405;28;20120;-71
2023/04/05 02:25:59;;;;;;;28.07;10.97;;;;;;;-144.73;86.80;54313.28;5024811;28;20020;-71
2023/04/05 02:28:24;;;;;;;27.73;10.87;;;;;;;-144.73;87.15;54342.03;5023443;28;20082;-71
2023/04/05 02:30:50;;;;;;;26.63;10.00;;;;;;;-144.73;87.46;54342.03;5039686;28;20028;-71
2023/04/05 02:33:15;;;;;;;32.13;10.80;;;;;;;-144.73;87.16;54313.28;5019946;28;20041;-71
2023/04/05 02:35:41;;;;;;;25.83;11.13;;;;;;;-144.73;86.74;54327.66;5023121;28;20028;-71
2023/04/05 02:38:06;;;;;;;27.27;10.33;;;;;;;-144.73;86.75;54290.72;5032116;28;20041;-71
2023/04/05 02:40:32;;;;;;;21.67;9.77;;;;;;;-144.73;87.15;54313.28;5036404;28;20038;-71
2023/04/05 02:42:57;;;;;;;25.47;10.23;;;;;;;-144.73;86.75;54366.66;5043241;28;20083;-71
2023/04/05 02:45:22;;;;;;;21.47;9.60;;;;;;;-144.73;86.43;54354.34;5031191;28;20097;-71
2023/04/05 02:47:48;;;;;;;23.20;9.80;;;;;;;-144.73;86.15;54325.59;5043999;28;20033;-71
2023/04/05 02:50:13;;;;;;;27.67;10.53;;;;;;;-144.73;86.93;54342.03;5026537;28;20115;-71
2023/04/05 02:52:39;;;;;;;33.27;10.77;;;;;;;-144.73;87.38;54333.81;5020270;28;20500;-71
2023/04/05 02:55:05;;;;;;;20.20;9.00;;;;;;;-144.73;87.21;54300.97;5024489;28;20031;-71
2023/04/05 02:57:31;;;;;;;26.93;9.37;;;;;;;-144.73;86.75;54354.34;5021735;28;20129;-71
2023/04/05 02:59:56;;;;;;;26.37;9.93;;;;;;;-144.73;86.97;54329.72;5018921;28;20117;-71
2023/04/05 03:02:22;;;;;;;25.13;9.30;;;;;;;-144.73;86.76;54362.53;5025255;28;20032;-71
2023/04/05 03:04:47;;;;;;;24.03;9.57;;;;;;;-144.73;87.01;54292.75;5041052;28;20377;-71
2023/04/05 03:07:17;;;;;;;23.67;8.50;;;;;;;-144.73;87.33;54350.22;5022343;28;20083;-71
2023/04/05 03:09:46;;;;;;;23.37;9.67;;;;;;;-144.73;87.75;54327.66;5032292;28;20136;-71
2023/04/05 03:12:12;;;;;;;23.83;10.23;;;;;;;-144.73;88.32;54313.28;5024131;28;20037;-71
2023/04/05 03:14:38;;;;;;;27.00;9.57;;;;;;;-144.73;88.54;54329.72;5041173;28;20025;-71
2023/04/05 03:17:03;;;;;;;26.37;10.30;;;;;;;-144.73;87.84;54358.44;5034813;28;20025;-71
2023/04/05 03:19:29;;;;;;;23.53;10.30;;;;;;;-144.73;88.59;54346.13;5042573;28;20029;-71
2023/04/05 03:21:54;;;;;;;23.93;10.40;;;;;;;-144.73;88.25;54342.03;5036507;28;20036;-71
2023/04/05 03:24:20;;;;;;;27.33;10.53;;;;;;;-144.73;87.76;54309.19;5039905;28;20069;-71
2023/04/05 03:26:46;;;;;;;24.43;10.33;;;;;;;-144.73;87.71;54329.72;5031773;28;20115;-71
2023/04/05 03:29:11;;;;;;;23.87;9.47;;;;;;;-144.73;87.65;54313.28;5023171;28;20033;-71
2023/04/05 03:31:37;;;;;;;25.93;10.37;;;;;;;-144.73;87.06;54346.13;5037807;28;20155;-72
2023/04/05 03:34:03;;;;;;;21.57;9.90;;;;;;;-144.73;87.25;54360.50;5022217;28;20045;-71
2023/04/05 03:36:29;;;;;;;24.27;10.13;;;;;;;-144.73;86.50;54300.97;5023620;28;20029;-72
2023/04/05 03:38:58;;;;;;;28.50;10.00;;;;;;;-144.73;86.96;54313.28;5038494;28;20113;-71
2023/04/05 03:41:23;;;;;;;24.50;9.77;;;;;;;-144.73;87.12;54309.19;5038504;28;20025;-71
2023/04/05 03:43:49;;;;;;;26.67;10.93;;;;;;;-144.73;87.55;54309.19;5024472;28;20034;-71
2023/04/05 03:46:15;;;;;;;28.67;10.90;;;;;;;-144.73;88.11;54313.28;5023395;28;20029;-71
2023/04/05 03:48:40;;;;;;;30.17;11.00;;;;;;;-144.73;88.11;54364.59;5027289;28;20040;-73
2023/04/05 03:51:07;;;;;;;26.53;10.33;;;;;;;-144.73;87.61;54337.91;5027486;28;20090;-72
2023/04/05 03:53:32;;;;;;;26.40;11.40;;;;;;;-144.73;87.56;54309.19;5028413;28;20037;-72
2023/04/05 03:55:58;;;;;;;27.70;10.47;;;;;;;-144.73;87.34;54325.59;5032139;28;20033;-70
2023/04/05 03:58:26;;;;;;;25.77;9.97;;;;;;;-144.73;87.54;54378.97;5034554;28;20378;-71
2023/04/05 04:00:52;;;;;;;24.83;10.03;;;;;;;-144.73;88.31;54317.38;5036258;28;20113;-70
2023/04/05 04:03:17;;;;;;;23.67;9.70;;;;;;;-144.73;88.76;54354.34;5023761;28;20029;-71
2023/04/05 04:05:43;;;;;;;32.93;11.87;;;;;;;-144.73;88.88;54300.97;5034528;28;20047;-71
2023/04/05 04:08:09;;;;;;;25.17;11.10;;;;;;;-144.73;88.58;54296.88;5026978;28;20026;-71
2023/04/05 04:10:35;;;;;;;28.97;10.00;;;;;;;-144.73;89.40;54325.59;5023999;28;20026;-69
2023/04/05 04:13:00;;;;;;;24.53;11.50;;;;;;;-144.73;89.41;54325.59;5024405;28;20044;-71
2023/04/05 04:15:26;;;;;;;34.50;12.20;;;;;;;-144.73;88.99;54325.59;5029861;28;20022;-71
2023/04/05 04:17:51;;;;;;;28.33;10.57;;;;;;;-144.73;88.55;54305.06;5033600;28;20025;-71
2023/04/05 04:20:16;;;;;;;26.10;11.03;;;;;;;-144.73;88.86;54296.88;5036454;28;20024;-71
2023/04/05 04:22:42;;;;;;;20.73;10.70;;;;;;;-144.73;88.99;54284.56;5022442;28;20600;-71
2023/04/05 04:25:09;;;;;;;28.83;10.63;;;;;;;-144.73;88.77;54358.44;5029232;28;20184;-71
2023/04/05 04:27:38;;;;;;;25.60;10.30;;;;;;;-144.73;88.26;54333.81;5030264;28;20040;-70
2023/04/05 04:30:06;;;;;;;19.20;10.43;;;;;;;-144.73;89.03;54329.72;5040893;28;20024;-70
2023/04/05 04:35:23;;;;;;;30.50;10.73;;;;;;;-144.73;87.75;54309.19;5038465;28;20034;-70
2023/04/05 04:37:57;;;;;;;26.30;10.10;;;;;;;-144.73;88.46;54313.28;5024380;28;20026;-70
2023/04/05 04:40:46;;;;;;;28.70;12.77;;;;;;;-144.73;88.33;54350.22;5025559;28;20025;-70
2023/04/05 04:43:16;;;;;;;33.77;11.00;;;;;;;-144.73;88.89;54317.38;5038784;28;20022;-70
2023/04/05 04:45:48;;;;;;;30.27;11.63;;;;;;;-144.73;89.10;54309.19;5026673;28;20068;-71
2023/04/05 04:48:17;;;;;;;29.73;11.37;;;;;;;-144.73;89.64;54296.88;5027120;28;20120;-71
2023/04/05 04:50:44;;;;;;;30.83;11.10;;;;;;;-144.73;89.59;54354.34;5027188;28;20100;-72
2023/04/05 04:53:10;;;;;;;18.77;9.30;;;;;;;-144.73;89.91;54313.28;5036548;28;20079;-71
2023/04/05 04:55:35;;;;;;;26.60;10.83;;;;;;;-144.73;90.10;54309.19;5025332;28;20052;-72
2023/04/05 04:58:08;;;;;;;23.37;10.60;;;;;;;-144.73;89.83;54305.06;5030802;28;20067;-71
2023/04/05 05:00:33;;;;;;;23.07;10.37;;;;;;;-144.73;89.43;54317.38;5027148;28;20028;-71
2023/04/05 05:02:58;;;;;;;23.77;9.73;;;;;;;-144.73;89.47;54317.38;5034235;28;20026;-71
2023/04/05 05:05:25;;;;;;;27.77;11.23;;;;;;;-144.73;89.71;54300.97;5031490;28;20027;-71
2023/04/05 05:07:51;;;;;;;35.70;10.30;;;;;;;-144.73;88.93;54284.56;5030768;28;20032;-71
2023/04/05 05:10:17;;;;;;;30.13;10.60;;;;;;;-144.73;88.72;54296.88;5044888;28;20029;-71
2023/04/05 05:12:43;;;;;;;35.50;11.70;;;;;;;-144.73;89.03;54346.13;5038502;28;20032;-71
2023/04/05 05:15:09;;;;;;;32.43;11.33;;;;;;;-144.73;88.58;54313.28;5037893;28;20017;-71
2023/04/05 05:17:35;;;;;;;31.67;10.53;;;;;;;-144.73;89.66;54317.38;5039601;28;20033;-71
2023/04/05 05:20:00;;;;;;;32.30;11.00;;;;;;;-144.73;91.58;54366.66;5028448;28;20033;-71
2023/04/05 05:22:27;;;;;;;21.73;10.83;;;;;;;-144.73;91.05;54350.22;5026500;28;20017;-71
2023/04/05 05:24:52;;;;;;;25.70;11.27;;;;;;;-144.73;90.35;54313.28;5037044;28;20078;-72
2023/04/05 05:27:18;;;;;;;28.00;10.80;;;;;;;-144.73;89.48;54337.91;5032317;28;20473;-71
2023/04/05 05:29:43;;;;;;;42.53;13.07;;;;;;;-144.73;89.99;54329.72;5029784;28;20016;-72
2023/04/05 05:32:13;;;;;;;36.63;10.80;;;;;;;-144.73;90.55;54346.13;5039557;28;20070;-72
2023/04/05 05:34:39;;;;;;;35.03;12.90;;;;;;;-144.73;92.84;54346.13;5032515;28;20119;-72
2023/04/05 05:37:05;;;;;;;38.80;12.77;;;;;;;-144.73;92.77;54321.50;5024269;28;20085;-72
2023/04/05 05:39:31;;;;;;;38.10;13.33;;;;;;;-144.73;92.25;54350.22;5040531;28;20525;-72
2023/04/05 05:41:56;;;;;;;33.83;12.93;;;;;;;-144.73;93.01;54286.59;5025009;28;20048;-72
2023/04/05 05:44:21;;;;;;;36.37;12.60;;;;;;;-144.73;92.04;54350.22;5021504;28;20036;-72
2023/04/05 05:46:47;;;;;;;31.67;12.93;;;;;;;-144.73;90.79;54321.50;5026069;28;20048;-72
2023/04/05 05:49:12;;;;;;;36.87;12.67;;;;;;;-144.73;90.22;54346.13;5022879;28;20033;-72
2023/04/05 05:51:37;;;;;;;37.10;13.40;;;;;;;-144.73;90.42;54350.22;5041941;28;20043;-72
2023/04/05 05:54:03;;;;;;;31.07;10.83;;;;;;;-144.73;88.69;54305.06;5035962;28;20034;-72
2023/04/05 05:56:28;;;;;;;41.27;11.60;;;;;;;-144.73;87.72;54346.13;5042291;28;20032;-72
2023/04/05 05:58:54;;;;;;;42.00;13.40;;;;;;;-144.73;86.43;54325.59;5021585;28;20041;-72
2023/04/05 06:01:21;;;;;;;33.53;11.93;;;;;;;-144.73;87.91;54313.28;5021916;28;20036;-72
2023/04/05 06:03:47;;;;;;;27.07;11.97;;;;;;;-144.73;87.73;54313.28;5024040;28;20036;-70
2023/04/05 06:06:12;;;;;;;37.07;11.80;;;;;;;-144.73;88.70;54342.03;5025497;28;20026;-71
2023/04/05 06:08:38;;;;;;;38.53;11.87;;;;;;;-144.73;89.47;54290.72;5044622;28;20139;-71
2023/04/05 06:11:03;;;;;;;32.43;12.03;;;;;;;-144.73;90.13;54333.81;5026278;28;20023;-70
2023/04/05 06:13:29;;;;;;;29.50;10.73;;;;;;;-144.73;89.27;54337.91;5033177;28;20120;-72
2023/04/05 06:15:55;;;;;;;28.43;11.10;;;;;;;-144.73;88.38;54276.34;5024745;28;20032;-71
2023/04/05 06:18:20;;;;;;;34.00;11.47;;;;;;;-144.73;88.29;54296.88;5046574;28;20044;-71
2023/04/05 06:20:46;;;;;;;28.77;11.63;;;;;;;-144.73;87.99;54325.59;5038375;28;20028;-71
2023/04/05 06:23:11;;;;;;;33.20;12.37;;;;;;;-144.73;88.46;54366.66;5034622;28;20132;-72
2023/04/05 06:25:37;;;;;;;35.57;11.60;;;;;;;-144.73;87.91;54346.13;5028854;28;20060;-72
2023/04/05 06:28:03;;;;;;;38.17;12.27;;;;;;;-144.73;87.71;54348.19;5040714;28;20037;-72
2023/04/05 06:30:30;;;;;;;40.60;12.10;;;;;;;-144.73;88.83;54354.34;5035258;28;20031;-71
2023/04/05 06:32:56;;;;;;;41.10;12.83;;;;;;;-144.73;89.52;54352.28;5030807;28;20044;-72
2023/04/05 06:35:22;;;;;;;39.00;13.30;;;;;;;-144.73;88.96;54325.59;5028855;28;20021;-71
2023/04/05 06:37:47;;;;;;;37.70;11.47;;;;;;;-144.73;87.93;54346.13;5050583;28;20045;-71
2023/04/05 06:40:14;;;;;;;32.83;12.07;;;;;;;-144.73;87.30;54309.19;5035506;28;20027;-71
2023/04/05 06:42:39;;;;;;;37.53;12.23;;;;;;;-144.73;87.90;54309.19;5026966;28;20036;-71
2023/04/05 06:45:05;;;;;;;36.27;11.37;;;;;;;-144.73;87.73;54337.91;5029547;28;20062;-71
2023/04/05 06:47:35;;;;;;;33.93;10.90;;;;;;;-144.73;87.55;54305.06;5028518;28;20069;-70
2023/04/05 06:50:01;;;;;;;28.50;10.57;;;;;;;-144.73;88.75;54337.91;5018881;28;20029;-72
2023/04/05 06:52:27;;;;;;;31.60;10.57;;;;;;;-144.73;89.49;54350.22;5022990;28;20136;-71
2023/04/05 06:54:52;;;;;;;22.70;9.63;;;;;;;-144.73;88.36;54309.19;5023640;28;20017;-72
2023/04/05 06:57:18;;;;;;;39.57;10.83;;;;;;;-144.73;88.25;54329.72;5030864;28;20031;-72
2023/04/05 06:59:43;;;;;;;36.77;11.10;;;;;;;-144.73;86.87;54329.72;5012087;28;20401;-71
2023/04/05 07:02:09;;;;;;;54.97;12.37;;;;;;;-144.73;86.44;54350.22;5025835;28;20084;-74
2023/04/05 07:04:36;;;;;;;42.33;11.53;;;;;;;-144.73;86.98;54346.13;5019705;28;20048;-71
2023/04/05 07:07:02;;;;;;;41.60;10.80;;;;;;;-144.73;86.80;54350.22;5017268;28;20028;-72
2023/04/05 07:09:31;;;;;;;24.50;9.07;;;;;;;-144.73;86.84;54346.13;5016782;28;20033;-72
2023/04/05 07:11:57;;;;;;;28.27;9.17;;;;;;;-144.73;86.77;54317.38;5035376;28;20018;-72
2023/04/05 07:14:22;;;;;;;29.20;9.03;;;;;;;-144.73;86.71;54319.44;5015393;28;20086;-72
2023/04/05 07:16:48;;;;;;;24.50;8.60;;;;;;;-144.73;86.43;54321.50;5030737;28;20017;-71
2023/04/05 07:19:14;;;;;;;27.20;8.73;;;;;;;-144.73;85.88;54317.38;5032123;28;20030;-71
2023/04/05 07:21:39;;;;;;;24.67;8.63;;;;;;;-144.73;84.81;54309.19;5017221;28;20106;-70
2023/04/05 07:24:05;;;;;;;38.30;8.10;;;;;;;-144.73;84.21;54350.22;5034202;28;20029;-70
2023/04/05 07:26:34;;;;;;;32.30;8.77;;;;;;;-144.73;83.92;54383.06;5034221;28;20025;-70
2023/04/05 07:29:03;;;;;;;29.30;9.23;;;;;;;-144.73;83.38;54370.75;5021264;28;20033;-71
2023/04/05 07:31:30;;;;;;;33.23;9.60;;;;;;;-144.73;83.62;54317.38;5040773;28;20025;-71
2023/04/05 07:33:57;;;;;;;26.23;9.60;;;;;;;-144.73;83.06;54381.00;5013068;28;20069;-71
2023/04/05 07:36:22;;;;;;;33.93;9.53;;;;;;;-144.73;82.16;54321.50;5022831;28;20021;-71
2023/04/05 07:38:48;;;;;;;18.67;8.07;;;;;;;-144.73;82.51;54350.22;5021126;28;20095;-71
2023/04/05 07:41:15;;;;;;;26.65;7.88;;;;;;;-144.73;81.42;54313.28;5020312;28;20178;-71
2023/04/05 07:43:41;;;;;;;33.15;9.20;;;;;;;-144.73;80.07;54362.53;5036921;28;20120;-72
2023/04/05 07:46:06;;;;;;;21.05;9.27;;;;;;;-144.73;78.88;54309.19;5047494;28;20116;-70
2023/04/05 07:48:32;;;;;;;33.88;8.82;;;;;;;-144.73;78.16;54335.88;5022028;28;20036;-71
2023/04/05 07:51:06;;;;;;;29.13;9.10;;;;;;;-144.73;75.96;54337.91;5037242;28;20016;-70
2023/04/05 07:53:31;;;;;;;33.33;8.93;;;;;;;-144.73;75.59;54305.06;5040263;28;20052;-72
2023/04/05 07:55:57;;;;;;;32.38;8.32;;;;;;;-144.73;74.91;54325.59;5039297;28;20021;-72
2023/04/05 07:58:24;;;;;;;28.08;8.23;;;;;;;-144.73;71.54;54315.34;5016874;28;20037;-71
2023/04/05 08:00:52;;;;;;;25.33;7.90;;;;;;;-144.73;70.37;54335.88;5032639;28;20126;-72
2023/04/05 08:03:17;;;;;;;26.13;8.30;;;;;;;-144.73;71.38;54337.91;5031933;28;20041;-71
2023/04/05 08:05:43;;;;;;;31.15;8.15;;;;;;;-144.73;70.70;54292.75;5029770;28;20036;-72
2023/04/05 08:08:09;;;;;;;19.48;7.43;;;;;;;-144.73;67.79;54317.38;5027224;28;20144;-70
2023/04/05 08:10:41;;;;;;;19.77;8.02;;;;;;;-144.73;67.72;54335.88;5021111;28;20037;-71
2023/04/05 08:13:07;;;;;;;21.20;7.68;;;;;;;-144.73;66.95;54325.59;5028451;28;20041;-71
2023/04/05 08:15:33;;;;;;;17.92;7.57;;;;;;;-144.73;64.48;54319.44;5017861;28;20025;-71
2023/04/05 08:17:58;;;;;;;17.08;7.13;;;;;;;-144.73;63.65;54305.06;5021815;28;20036;-70
2023/04/05 08:20:24;;;;;;;14.93;7.35;;;;;;;-144.73;64.36;54317.38;5023039;28;20026;-70
2023/04/05 08:22:49;;;;;;;31.45;8.30;;;;;;;-144.73;62.58;54362.53;5029896;28;20029;-72
2023/04/05 08:25:15;;;;;;;23.52;7.70;;;;;;;-144.73;61.20;54329.72;5040704;28;20021;-71
2023/04/05 08:27:40;;;;;;;21.77;7.18;;;;;;;-144.73;59.69;54305.06;5024986;28;20030;-71
2023/04/05 08:30:06;;;;;;;22.83;7.65;;;;;;;-144.73;60.28;54325.59;5037546;28;20012;-70
2023/04/05 08:32:33;;;;;;;21.55;7.93;;;;;;;-144.73;59.93;54309.19;5035756;28;20095;-71
2023/04/05 08:34:59;;;;;;;30.40;7.95;;;;;;;-144.73;59.52;54300.97;5020506;28;20045;-70
2023/04/05 08:37:24;;;;;;;26.67;6.93;;;;;;;-144.73;57.22;54366.66;5022477;28;20453;-71
2023/04/05 08:39:49;;;;;;;18.20;6.75;;;;;;;-144.73;56.76;54298.91;5035543;28;20033;-70
2023/04/05 08:42:17;;;;;;;17.02;6.43;;;;;;;-144.73;56.49;54313.28;5035271;28;20033;-72
2023/04/05 08:44:44;;;;;;;19.20;7.00;;;;;;;-144.73;55.91;54317.38;5040866;28;20028;-72
2023/04/05 08:47:14;;;;;;;21.33;7.00;;;;;;;-144.73;56.99;54329.72;5023430;28;20033;-70
2023/04/05 08:49:43;;;;;;;25.02;8.43;;;;;;;-144.73;55.33;54280.44;5027599;28;20051;-71
2023/04/05 08:52:08;;;;;;;20.88;6.68;;;;;;;-144.73;55.82;54305.06;5024726;28;20027;-71
2023/04/05 08:54:34;;;;;;;19.35;6.80;;;;;;;-144.73;54.87;54321.50;5021877;28;20147;-71
2023/04/05 08:57:04;;;;;;;16.60;6.88;;;;;;;-144.73;54.60;54292.75;5039091;28;20018;-71
2023/04/05 08:59:33;;;;;;;16.17;6.53;;;;;;;-144.73;53.14;54321.50;5018684;28;20037;-71
2023/04/05 09:02:00;;;;;;;19.35;5.88;;;;;;;-144.73;52.76;54276.34;5020824;28;20032;-71
2023/04/05 09:04:30;;;;;;;16.00;6.10;;;;;;;-144.73;53.92;54284.56;5017957;28;20037;-71
2023/04/05 09:06:58;;;;;;;29.42;6.65;;;;;;;-144.73;53.61;54300.97;5024987;28;20028;-72
2023/04/05 09:09:24;;;;;;;20.83;6.38;;;;;;;-144.73;52.81;54317.38;5017376;28;20577;-72
2023/04/05 09:11:50;;;;;;;21.02;6.53;;;;;;;-144.73;50.93;54282.50;5013643;28;20033;-71
2023/04/05 09:14:16;;;;;;;10.63;4.90;;;;;;;-144.73;49.91;54309.19;5020829;28;20033;-72
2023/04/05 09:16:42;;;;;;;11.75;5.40;;;;;;;-144.73;47.60;54323.53;5028217;28;20033;-72
2023/04/05 09:19:09;;;;;;;15.88;5.05;;;;;;;-144.73;48.48;54276.34;5179170;23;20044;-73
2023/04/05 09:21:56;;;;;;;14.45;4.55;;;;;;;-144.73;45.64;54313.28;5089283;28;20060;-73
2023/04/05 09:24:40;;;;;;;7.25;3.60;;;;;;;-144.73;45.25;54321.50;5072712;28;20040;-73
2023/04/05 09:27:07;;;;;;;9.57;3.58;;;;;;;-144.73;44.85;54342.03;5076233;28;20039;-72
2023/04/05 09:29:32;;;;;;;9.00;4.22;;;;;;;-144.73;46.40;54305.06;5060525;28;20041;-72
2023/04/05 09:32:01;;;;;;;12.60;5.03;;;;;;;-144.73;46.26;54315.34;5064173;28;20118;-72
2023/04/05 09:34:38;;;;;;;9.45;4.50;;;;;;;-144.73;47.00;54319.44;5061452;28;20040;-72
2023/04/05 09:37:35;;;;;;;11.07;4.82;;;;;;;-144.73;47.02;54284.56;5059963;28;20035;-72
2023/04/05 09:40:22;;;;;;;9.35;4.10;;;;;;;-144.73;47.43;54309.19;5056468;28;20061;-73
2023/04/05 09:43:36;;;;;;;9.88;4.28;;;;;;;-144.73;46.76;54307.13;5054232;28;20127;-72
2023/04/05 09:46:29;;;;;;;11.10;4.90;;;;;;;-144.73;46.45;54280.44;5033464;28;20051;-72
2023/04/05 09:48:55;;;;;;;9.13;4.38;;;;;;;-144.73;46.19;54268.13;5065093;28;20037;-72
2023/04/05 09:51:21;;;;;;;11.20;4.88;;;;;;;-144.73;44.08;54317.38;5057177;28;20062;-73
2023/04/05 09:54:00;;;;;;;11.25;4.35;;;;;;;-144.73;44.43;54317.38;5053914;28;20044;-73
2023/04/05 09:56:31;;;;;;;7.88;4.10;;;;;;;-144.73;44.51;54237.34;5075203;28;20400;-73
2023/04/05 09:59:01;;;;;;;10.23;3.93;;;;;;;-144.73;43.80;54276.34;5058171;28;20073;-71
2023/04/05 10:01:30;;;;;;;14.50;4.05;;;;;;;-144.73;42.48;54321.50;5056840;28;20397;-71
2023/04/05 10:03:57;;;;;;;15.98;4.22;;;;;;;-144.73;43.43;54243.50;5055218;28;20067;-72
2023/04/05 10:06:23;;;;;;;11.35;4.30;;;;;;;-144.73;42.56;54317.38;5061899;28;20038;-72
2023/04/05 10:08:49;;;;;;;10.45;3.83;;;;;;;-144.73;41.25;54321.50;5064642;28;20119;-72
2023/04/05 10:11:17;;;;;;;8.75;4.20;;;;;;;-144.73;41.92;54350.22;5064325;28;20020;-72
2023/04/05 10:13:44;;;;;;;9.52;3.78;;;;;;;-144.73;42.39;54344.06;5052902;28;20061;-71
2023/04/05 10:16:14;;;;;;;16.83;3.92;;;;;;;-144.73;42.84;54292.75;5061317;28;20074;-72
2023/04/05 10:18:48;;;;;;;13.43;4.57;;;;;;;-144.73;42.63;54309.19;5059073;28;20036;-71
2023/04/05 10:21:17;;;;;;;11.75;4.35;;;;;;;-144.73;43.27;54286.59;5062448;28;20087;-72
2023/04/05 10:23:45;;;;;;;8.98;4.47;;;;;;;-144.73;42.46;54245.56;5062568;28;20055;-71
2023/04/05 10:26:39;;;;;;;11.85;4.25;;;;;;;-144.73;41.59;54286.59;5058283;28;20027;-71
2023/04/05 10:29:12;;;;;;;16.35;4.10;;;;;;;-144.73;41.01;54311.22;5055394;28;20028;-72
2023/04/05 10:31:58;;;;;;;10.93;3.20;;;;;;;-144.73;39.72;54317.38;5060000;28;20067;-71
2023/04/05 10:34:28;;;;;;;9.68;3.88;;;;;;;-144.73;38.79;54305.06;5061735;28;20048;-71
2023/04/05 10:37:00;;;;;;;7.95;3.35;;;;;;;-144.73;39.17;54329.72;5066955;28;20020;-71
2023/04/05 10:39:28;;;;;;;6.97;3.78;;;;;;;-144.73;39.05;54321.50;5053133;28;20086;-73
2023/04/05 10:41:59;;;;;;;10.75;4.53;;;;;;;-144.73;39.74;54333.81;5061559;28;20081;-73
2023/04/05 10:44:25;;;;;;;10.75;4.47;;;;;;;-144.73;40.38;54290.72;5054140;28;20029;-72
2023/04/05 10:46:53;;;;;;;10.93;4.43;;;;;;;-144.73;40.69;54313.28;5051254;28;20043;-73
2023/04/05 10:49:32;;;;;;;13.27;4.50;;;;;;;-144.73;41.67;54278.41;5063715;28;20033;-73
2023/04/05 10:51:58;;;;;;;6.15;3.70;;;;;;;-144.73;39.00;54317.38;5058905;28;20021;-71
2023/04/05 10:54:24;;;;;;;6.38;3.83;;;;;;;-144.73;40.04;54239.41;5065698;28;20427;-71
2023/04/05 10:56:50;;;;;;;9.88;4.15;;;;;;;-144.73;39.35;54280.44;5060193;28;20420;-72
2023/04/05 10:59:16;;;;;;;7.85;3.70;;;;;;;-144.73;40.75;54350.22;5061242;28;20048;-72
2023/04/05 11:01:44;;;;;;;8.95;4.43;;;;;;;-144.73;42.39;54366.66;5062764;28;20085;-72
2023/04/05 11:04:11;;;;;;;8.40;4.70;;;;;;;-144.73;44.14;54317.38;5056218;28;20114;-72
2023/04/05 11:06:37;;;;;;;17.30;4.85;;;;;;;-144.73;45.04;54276.34;5062578;28;20123;-71
2023/04/05 11:09:14;;;;;;;13.25;5.00;;;;;;;-144.73;43.99;54329.72;5054016;28;20123;-72
2023/04/05 11:11:41;;;;;;;12.05;4.63;;;;;;;-144.73;44.95;54354.34;5066625;28;20104;-72
2023/04/05 11:14:20;;;;;;;11.75;4.75;;;;;;;-144.73;45.71;54315.34;5055276;28;20037;-72